Time;durP1;ratioP1;P1;durP2;ratioP2;P2;SDS_P1;SDS_P2;PMS_P1;PMS_P2;Temp;Humidity;BMP_temperature;BMP_pressure;BME280_temperature;BME280_humidity;BME280_pressure;Samples;Min_cycle;Max_cycle;Signal;HPM_P1;HPM_P2
2022/06/26 00:00:32;;;;;;;2.95;1.92;;;;;;;21.62;100.00;99443.47;6273954;22;20012;-81
2022/06/26 00:02:58;;;;;;;5.10;2.35;;;;;;;21.57;100.00;99448.69;6274286;22;20008;-80
2022/06/26 00:05:24;;;;;;;2.78;2.10;;;;;;;21.54;100.00;99448.28;6272999;22;20095;-81
2022/06/26 00:07:49;;;;;;;3.15;1.80;;;;;;;21.49;100.00;99448.94;6273124;22;20012;-80
2022/06/26 00:10:15;;;;;;;3.55;1.80;;;;;;;21.50;100.00;99442.50;6273218;22;20009;-80
2022/06/26 00:12:41;;;;;;;3.65;1.92;;;;;;;21.46;100.00;99445.84;6273122;22;20007;-79
2022/06/26 00:15:07;;;;;;;2.05;1.80;;;;;;;21.44;100.00;99456.81;6272885;22;20008;-81
2022/06/26 00:17:32;;;;;;;4.97;1.92;;;;;;;21.44;100.00;99446.06;6245632;22;20344;-79
2022/06/26 00:19:58;;;;;;;4.43;1.77;;;;;;;21.48;100.00;99455.34;6272995;22;20098;-79
2022/06/26 00:22:24;;;;;;;3.20;1.83;;;;;;;21.52;100.00;99453.88;6245201;22;20012;-81
2022/06/26 00:24:49;;;;;;;4.15;2.00;;;;;;;21.54;100.00;99456.34;6272162;22;20027;-82
2022/06/26 00:27:15;;;;;;;1.98;1.58;;;;;;;21.52;100.00;99448.50;6272520;22;20031;-83
2022/06/26 00:29:41;;;;;;;2.33;1.95;;;;;;;21.50;100.00;99455.94;6272848;22;20007;-82
2022/06/26 00:32:07;;;;;;;3.60;1.67;;;;;;;21.51;100.00;99454.91;6272988;22;20007;-82
2022/06/26 00:34:33;;;;;;;2.33;2.13;;;;;;;21.48;100.00;99458.03;6245841;22;20164;-81
2022/06/26 00:36:58;;;;;;;3.67;2.05;;;;;;;21.44;100.00;99453.31;6245355;22;20417;-81
2022/06/26 00:39:24;;;;;;;2.80;1.83;;;;;;;21.37;100.00;99464.09;6272167;22;20002;-82
2022/06/26 00:41:53;;;;;;;4.03;1.98;;;;;;;21.28;100.00;99454.63;6272938;22;20015;-82
2022/06/26 00:44:21;;;;;;;4.82;2.60;;;;;;;21.15;100.00;99452.81;6272597;22;20145;-83
2022/06/26 00:46:47;;;;;;;3.33;1.73;;;;;;;21.09;100.00;99458.19;6273366;22;20333;-81
2022/06/26 00:49:13;;;;;;;3.17;1.95;;;;;;;21.03;100.00;99453.69;6272476;22;20030;-80
2022/06/26 00:51:43;;;;;;;2.65;1.85;;;;;;;21.02;100.00;99457.41;6245273;22;20061;-81
2022/06/26 00:54:09;;;;;;;3.17;1.88;;;;;;;21.02;100.00;99452.03;6244795;22;20049;-80
2022/06/26 00:56:36;;;;;;;2.50;2.30;;;;;;;21.06;100.00;99458.63;6272946;22;20038;-81
2022/06/26 00:59:03;;;;;;;3.85;2.15;;;;;;;21.10;100.00;99454.47;6268992;22;20435;-79
2022/06/26 01:01:29;;;;;;;4.82;2.33;;;;;;;21.11;100.00;99456.13;6269890;22;20336;-80
2022/06/26 01:03:55;;;;;;;3.03;1.90;;;;;;;21.12;100.00;99452.41;6270299;22;20008;-80
2022/06/26 01:06:21;;;;;;;2.38;1.95;;;;;;;21.10;100.00;99459.84;6271911;22;20023;-80
2022/06/26 01:08:46;;;;;;;3.47;2.10;;;;;;;20.98;100.00;99458.84;6244839;22;20018;-80
2022/06/26 01:11:18;;;;;;;4.05;1.83;;;;;;;20.90;100.00;99453.72;6245282;22;20412;-80
2022/06/26 01:13:45;;;;;;;2.53;2.17;;;;;;;20.86;100.00;99453.31;6274583;22;20333;-81
2022/06/26 01:16:13;;;;;;;2.20;1.92;;;;;;;20.85;100.00;99455.16;6274902;22;20018;-80
2022/06/26 01:18:40;;;;;;;4.72;2.22;;;;;;;20.84;100.00;99450.88;6247914;22;20004;-81
2022/06/26 01:21:06;;;;;;;2.75;2.00;;;;;;;20.82;100.00;99462.81;6248159;22;20018;-83
2022/06/26 01:23:32;;;;;;;2.92;1.85;;;;;;;20.81;100.00;99467.38;6247470;22;20038;-81
2022/06/26 01:25:58;;;;;;;3.35;2.03;;;;;;;20.74;100.00;99471.91;6247993;22;20012;-81
2022/06/26 01:28:24;;;;;;;5.10;3.05;;;;;;;20.71;100.00;99468.84;6247606;22;20057;-82
2022/06/26 01:30:50;;;;;;;5.05;2.58;;;;;;;20.67;100.00;99462.25;6275638;22;20007;-82
2022/06/26 01:33:15;;;;;;;4.70;2.10;;;;;;;20.61;100.00;99455.88;6274800;22;20004;-80
2022/06/26 01:35:41;;;;;;;3.28;2.35;;;;;;;20.62;100.00;99452.13;6222186;22;20015;-80
2022/06/26 01:38:16;;;;;;;5.93;2.17;;;;;;;20.60;100.00;99459.59;6273900;22;20068;-79
2022/06/26 01:40:43;;;;;;;4.30;2.25;;;;;;;20.50;100.00;99467.22;6273904;22;20340;-80
2022/06/26 01:43:13;;;;;;;3.17;2.15;;;;;;;20.41;100.00;99465.81;6245194;22;20978;-80
2022/06/26 01:45:50;;;;;;;3.47;2.67;;;;;;;20.34;100.00;99462.28;6245804;22;20345;-79
2022/06/26 01:48:17;;;;;;;5.68;2.20;;;;;;;20.24;100.00;99459.19;6245984;22;20008;-79
2022/06/26 01:50:43;;;;;;;3.10;2.38;;;;;;;20.15;100.00;99458.56;6246181;22;20027;-81
2022/06/26 01:53:10;;;;;;;3.05;2.72;;;;;;;20.09;100.00;99462.06;6245526;22;20007;-82
2022/06/26 01:55:39;;;;;;;2.65;2.15;;;;;;;20.03;100.00;99457.53;6246190;22;20058;-80
2022/06/26 01:58:08;;;;;;;3.45;2.38;;;;;;;19.88;100.00;99465.78;6246641;22;20030;-78
2022/06/26 02:00:36;;;;;;;4.28;2.33;;;;;;;19.78;100.00;99462.69;6246495;22;20027;-80
2022/06/26 02:03:03;;;;;;;2.92;2.47;;;;;;;19.82;100.00;99461.25;6273897;22;20328;-79
2022/06/26 02:05:29;;;;;;;2.67;2.47;;;;;;;19.78;100.00;99470.72;6273424;22;20008;-80
2022/06/26 02:07:55;;;;;;;2.60;2.40;;;;;;;19.72;100.00;99468.84;6273542;22;20030;-81
2022/06/26 02:15:55;;;;;;;5.20;2.80;;;;;;;19.49;100.00;99465.72;6247582;22;20333;-81
2022/06/26 02:18:21;;;;;;;4.25;2.90;;;;;;;19.56;100.00;99471.88;6247218;22;20059;-82
2022/06/26 02:20:47;;;;;;;2.95;2.75;;;;;;;19.67;100.00;99474.00;6275551;22;20015;-83
2022/06/26 02:23:13;;;;;;;3.40;2.45;;;;;;;19.76;100.00;99483.47;6275813;22;20094;-83
2022/06/26 02:25:40;;;;;;;2.55;2.35;;;;;;;19.83;100.00;99484.31;6250952;22;20007;-83
2022/06/26 02:28:08;;;;;;;2.58;2.38;;;;;;;19.88;100.00;99491.72;6277572;22;20025;-84
2022/06/26 02:30:34;;;;;;;3.20;2.75;;;;;;;19.88;100.00;99491.72;6277785;22;20416;-84
2022/06/26 02:33:00;;;;;;;4.38;2.75;;;;;;;19.85;100.00;99476.88;6278415;22;20023;-84
2022/06/26 02:35:27;;;;;;;4.60;2.30;;;;;;;19.84;100.00;99480.63;6251505;22;20019;-84
2022/06/26 02:37:57;;;;;;;4.97;2.90;;;;;;;19.83;100.00;99489.66;6253024;22;20545;-84
2022/06/26 02:40:27;;;;;;;2.67;2.47;;;;;;;19.80;100.00;99474.00;6279551;22;20027;-85
2022/06/26 02:42:53;;;;;;;4.50;2.88;;;;;;;19.79;100.00;99483.06;6278688;22;20018;-85
2022/06/26 02:45:19;;;;;;;3.08;2.72;;;;;;;19.68;100.00;99480.97;6253108;22;20035;-85
2022/06/26 02:47:46;;;;;;;3.33;2.45;;;;;;;19.54;100.00;99479.31;6276891;22;20014;-85
2022/06/26 02:50:14;;;;;;;4.28;2.53;;;;;;;19.38;100.00;99491.16;6249130;22;20400;-83
2022/06/26 02:52:39;;;;;;;2.63;2.42;;;;;;;19.26;100.00;99483.94;6276951;22;20007;-83
2022/06/26 02:55:06;;;;;;;4.18;2.60;;;;;;;19.27;100.00;99482.88;6247777;22;20011;-82
2022/06/26 02:57:35;;;;;;;;;;;;;;;19.28;100.00;99484.53;6246694;22;20016;-81
2022/06/26 03:00:01;;;;;;;3.30;2.20;;;;;;;19.29;100.00;99483.53;6273822;22;20252;-81
2022/06/26 03:02:30;;;;;;;4.03;2.65;;;;;;;19.29;100.00;99486.19;6246541;22;20020;-81
2022/06/26 03:05:01;;;;;;;3.25;2.47;;;;;;;19.28;100.00;99489.91;6247828;22;20008;-82
2022/06/26 03:07:27;;;;;;;4.55;2.83;;;;;;;19.26;100.00;99492.78;6246526;22;20083;-80
2022/06/26 03:09:54;;;;;;;4.25;2.40;;;;;;;19.29;100.00;99496.91;6247098;22;20007;-83
2022/06/26 03:12:20;;;;;;;3.25;2.95;;;;;;;19.29;100.00;99503.06;6275219;22;20050;-79
2022/06/26 03:14:46;;;;;;;5.03;2.97;;;;;;;19.37;100.00;99505.59;6275736;22;20065;-83
2022/06/26 03:17:11;;;;;;;5.32;2.55;;;;;;;19.43;100.00;99493.25;6275988;22;20016;-83
2022/06/26 03:19:37;;;;;;;5.93;2.90;;;;;;;19.47;100.00;99499.88;6274524;22;20003;-81
2022/06/26 03:22:04;;;;;;;2.75;2.40;;;;;;;19.51;100.00;99506.47;6246755;22;20069;-80
2022/06/26 03:24:31;;;;;;;2.80;2.40;;;;;;;19.52;100.00;99513.47;6246593;22;20018;-82
2022/06/26 03:26:58;;;;;;;2.53;2.30;;;;;;;19.51;100.00;99519.84;6275098;22;20579;-81
2022/06/26 03:29:24;;;;;;;4.32;2.63;;;;;;;19.44;100.00;99517.13;6273895;22;20018;-81
2022/06/26 03:31:51;;;;;;;5.03;3.03;;;;;;;19.31;100.00;99516.25;6247822;22;20328;-82
2022/06/26 03:34:16;;;;;;;3.13;2.83;;;;;;;19.21;100.00;99520.13;6247369;22;20039;-82
2022/06/26 03:36:44;;;;;;;4.32;2.50;;;;;;;19.13;100.00;99524.81;6273710;22;19999;-80
2022/06/26 03:39:10;;;;;;;4.00;2.75;;;;;;;19.08;100.00;99527.28;6273252;22;20014;-80
2022/06/26 03:41:37;;;;;;;4.30;2.90;;;;;;;19.06;100.00;99532.81;6273981;22;20415;-81
2022/06/26 03:44:06;;;;;;;3.13;2.75;;;;;;;18.94;100.00;99534.38;6221251;22;20015;-81
2022/06/26 03:46:32;;;;;;;4.13;2.97;;;;;;;18.84;100.00;99533.94;6273711;22;20046;-81
2022/06/26 03:48:59;;;;;;;3.50;3.20;;;;;;;18.73;100.00;99529.91;6274422;22;20012;-82
2022/06/26 03:51:26;;;;;;;4.18;2.83;;;;;;;18.75;100.00;99540.44;6246935;22;20097;-82
2022/06/26 03:53:51;;;;;;;3.40;2.80;;;;;;;18.81;100.00;99537.81;6274996;22;20008;-84
2022/06/26 03:56:17;;;;;;;3.92;3.30;;;;;;;18.91;100.00;99540.13;6273878;22;20038;-80
2022/06/26 03:58:43;;;;;;;3.38;2.90;;;;;;;18.87;100.00;99546.88;6246391;22;20082;-78
2022/06/26 04:01:12;;;;;;;4.57;3.10;;;;;;;18.87;100.00;99541.53;6220956;22;20035;-79
2022/06/26 04:03:37;;;;;;;3.13;2.92;;;;;;;18.88;100.00;99540.53;6273558;22;20004;-79
2022/06/26 04:06:03;;;;;;;3.75;3.08;;;;;;;18.94;100.00;99542.41;6246438;22;20020;-80
2022/06/26 04:08:34;;;;;;;3.42;2.60;;;;;;;19.07;100.00;99550.50;6246326;22;20345;-79
2022/06/26 04:11:05;;;;;;;3.22;2.92;;;;;;;19.17;100.00;99542.94;6246837;22;20062;-80
2022/06/26 04:13:34;;;;;;;5.03;2.60;;;;;;;19.17;100.00;99552.81;6273952;22;20022;-79
2022/06/26 04:16:00;;;;;;;3.88;2.30;;;;;;;19.26;100.00;99556.16;6246184;22;20337;-81
2022/06/26 04:18:26;;;;;;;2.42;2.20;;;;;;;19.30;100.00;99557.41;6245570;22;20437;-81
2022/06/26 04:20:54;;;;;;;2.60;2.40;;;;;;;19.37;100.00;99563.63;6273608;22;20387;-79
2022/06/26 04:23:19;;;;;;;2.28;2.17;;;;;;;19.39;100.00;99562.38;6246312;22;20019;-80
2022/06/26 04:25:47;;;;;;;2.40;2.20;;;;;;;19.45;100.00;99568.78;6246875;22;20011;-81
2022/06/26 04:28:13;;;;;;;2.58;2.38;;;;;;;19.48;100.00;99565.75;6246490;22;20015;-80
2022/06/26 04:30:45;;;;;;;3.05;2.47;;;;;;;19.53;100.00;99568.66;6273494;22;20008;-81
2022/06/26 04:33:10;;;;;;;3.80;2.53;;;;;;;19.46;100.00;99565.13;6245692;22;20069;-81
2022/06/26 04:35:36;;;;;;;2.70;2.50;;;;;;;19.44;100.00;99564.50;6246709;22;20094;-81
2022/06/26 04:38:02;;;;;;;4.55;2.60;;;;;;;19.46;100.00;99579.34;6247149;22;20090;-81
2022/06/26 04:40:29;;;;;;;3.90;2.60;;;;;;;19.47;100.00;99575.63;6246166;22;20018;-79
2022/06/26 04:42:55;;;;;;;3.60;2.25;;;;;;;19.50;100.00;99579.75;6245983;22;20333;-80
2022/06/26 04:45:22;;;;;;;4.50;2.30;;;;;;;19.54;100.00;99581.03;6245701;22;20129;-81
2022/06/26 04:47:48;;;;;;;5.30;2.53;;;;;;;19.59;100.00;99578.56;6248973;22;20011;-82
2022/06/26 04:50:17;;;;;;;2.63;2.35;;;;;;;19.63;100.00;99575.28;6275669;22;20011;-81
2022/06/26 04:52:47;;;;;;;4.68;2.50;;;;;;;19.63;100.00;99571.78;6248687;22;20484;-82
2022/06/26 04:55:13;;;;;;;;;;;;;;;19.66;100.00;99574.06;6248757;22;20016;-81
2022/06/26 04:57:42;;;;;;;2.72;2.53;;;;;;;19.69;100.00;99568.31;6249566;22;19936;-81
2022/06/26 05:00:10;;;;;;;2.80;2.60;;;;;;;19.79;100.00;99579.44;6276566;22;20018;-81
2022/06/26 05:02:42;;;;;;;4.45;2.50;;;;;;;19.87;100.00;99576.59;6224554;22;20154;-82
2022/06/26 05:05:39;;;;;;;3.42;2.30;;;;;;;19.94;100.00;99577.44;6249334;22;20016;-82
2022/06/26 05:08:19;;;;;;;2.33;2.05;;;;;;;20.03;100.00;99586.09;6248784;22;20015;-80
2022/06/26 05:10:45;;;;;;;5.35;3.08;;;;;;;20.12;100.00;99586.75;6223313;22;20371;-79
2022/06/26 05:13:10;;;;;;;3.45;2.13;;;;;;;20.22;100.00;99579.13;6275614;22;20447;-82
2022/06/26 05:15:42;;;;;;;6.70;2.78;;;;;;;20.33;100.00;99581.25;6286010;22;20340;-82
2022/06/26 05:18:09;;;;;;;5.93;2.35;;;;;;;20.39;100.00;99585.78;6247499;22;20038;-82
2022/06/26 05:20:35;;;;;;;4.15;2.28;;;;;;;20.39;100.00;99591.13;6276437;22;20007;-78
2022/06/26 05:23:05;;;;;;;3.38;2.40;;;;;;;20.37;100.00;99593.22;6275899;22;20008;-79
2022/06/26 05:25:31;;;;;;;4.22;2.30;;;;;;;20.34;100.00;99598.97;6247702;22;20016;-81
2022/06/26 05:27:57;;;;;;;4.18;2.63;;;;;;;20.35;100.00;99609.50;6248780;22;20344;-81
2022/06/26 05:30:23;;;;;;;3.65;2.92;;;;;;;20.39;100.00;99612.56;6248513;22;20016;-82
2022/06/26 05:32:48;;;;;;;3.72;2.45;;;;;;;20.43;100.00;99609.31;6276380;22;20000;-81
2022/06/26 05:35:18;;;;;;;3.22;3.00;;;;;;;20.48;100.00;99611.38;6247808;22;20046;-80
2022/06/26 05:37:43;;;;;;;4.38;3.20;;;;;;;20.34;100.00;99609.69;6248025;22;20020;-81
2022/06/26 05:40:09;;;;;;;4.20;2.80;;;;;;;20.44;100.00;99599.38;6222219;22;20351;-82
2022/06/26 05:42:40;;;;;;;5.00;3.20;;;;;;;20.44;100.00;99604.75;6275131;22;20049;-80
2022/06/26 05:45:08;;;;;;;3.13;2.90;;;;;;;20.41;100.00;99615.91;6242467;23;20012;-80
2022/06/26 05:47:34;;;;;;;3.63;3.08;;;;;;;20.33;100.00;99614.22;6242249;23;20010;-80
2022/06/26 05:50:18;;;;;;;4.75;3.22;;;;;;;20.35;100.00;99612.19;6243716;23;20026;-82
2022/06/26 05:53:17;;;;;;;3.97;2.80;;;;;;;20.44;100.00;99613.63;6212064;23;20453;-83
2022/06/26 05:56:01;;;;;;;3.33;2.75;;;;;;;20.36;100.00;99623.72;6243388;23;20008;-78
2022/06/26 05:58:38;;;;;;;4.38;2.60;;;;;;;20.51;100.00;99632.38;6243379;23;20099;-82
2022/06/26 06:01:22;;;;;;;3.22;2.85;;;;;;;20.68;100.00;99639.00;6243180;23;20027;-80
2022/06/26 06:03:52;;;;;;;5.63;3.00;;;;;;;20.78;100.00;99639.44;6193866;23;20016;-81
2022/06/26 06:06:19;;;;;;;3.90;2.72;;;;;;;20.85;100.00;99634.88;6216308;23;20107;-82
2022/06/26 06:08:45;;;;;;;2.50;2.30;;;;;;;20.97;100.00;99642.31;6243545;22;20430;-81
2022/06/26 06:11:10;;;;;;;2.72;2.30;;;;;;;21.07;100.00;99643.53;6243498;22;20008;-81
2022/06/26 06:13:36;;;;;;;2.42;2.22;;;;;;;21.18;100.00;99639.41;6216698;23;20019;-82
2022/06/26 06:16:02;;;;;;;3.20;2.45;;;;;;;21.28;100.00;99641.66;6217015;23;20016;-82
2022/06/26 06:18:29;;;;;;;2.70;2.47;;;;;;;21.34;100.00;99638.97;6241552;23;20120;-82
2022/06/26 06:21:19;;;;;;;3.40;2.25;;;;;;;21.46;100.00;99631.09;6241283;23;20074;-85
2022/06/26 06:23:48;;;;;;;3.30;2.17;;;;;;;21.60;100.00;99630.84;6241400;23;20023;-81
2022/06/26 06:26:15;;;;;;;5.47;2.42;;;;;;;21.74;100.00;99633.47;6242492;22;20028;-82
2022/06/26 06:28:41;;;;;;;2.90;2.60;;;;;;;21.74;100.00;99634.28;6214966;23;20009;-79
2022/06/26 06:31:09;;;;;;;2.78;2.55;;;;;;;21.64;100.00;99626.69;6240927;23;20062;-79
2022/06/26 06:33:36;;;;;;;3.38;2.22;;;;;;;21.71;100.00;99633.91;6240492;23;20008;-80
2022/06/26 06:36:02;;;;;;;5.55;2.47;;;;;;;21.85;100.00;99635.50;6240400;23;20058;-80
2022/06/26 06:38:30;;;;;;;3.40;2.45;;;;;;;21.95;100.00;99643.97;6239771;23;20061;-81
2022/06/26 06:41:01;;;;;;;2.83;2.13;;;;;;;22.08;100.00;99635.84;6240529;23;20012;-86
2022/06/26 06:43:38;;;;;;;4.97;2.28;;;;;;;22.18;100.00;99640.72;6239818;23;20044;-79
2022/06/26 06:46:23;;;;;;;3.13;2.10;;;;;;;22.25;100.00;99631.59;6241433;23;20103;-80
2022/06/26 06:48:59;;;;;;;4.47;2.95;;;;;;;22.34;100.00;99638.34;6242239;23;20107;-79
2022/06/26 06:51:35;;;;;;;8.07;2.42;;;;;;;22.46;100.00;99642.00;6240537;23;20008;-81
2022/06/26 06:54:01;;;;;;;4.57;2.22;;;;;;;22.61;100.00;99646.25;6241926;22;20013;-79
2022/06/26 06:56:28;;;;;;;2.78;2.50;;;;;;;22.65;100.00;99650.16;6240450;23;20019;-80
2022/06/26 06:58:54;;;;;;;3.28;2.17;;;;;;;22.69;100.00;99654.03;6241088;22;20012;-82
2022/06/26 07:01:19;;;;;;;3.92;3.17;;;;;;;22.68;100.00;99653.22;6240655;23;20016;-81
2022/06/26 07:03:46;;;;;;;4.80;2.65;;;;;;;22.65;100.00;99658.22;6239313;23;20012;-85
2022/06/26 07:06:11;;;;;;;7.47;2.72;;;;;;;22.64;100.00;99664.63;6213295;23;20089;-81
2022/06/26 07:08:37;;;;;;;2.85;2.40;;;;;;;22.71;100.00;99668.09;6240455;22;20008;-82
2022/06/26 07:11:02;;;;;;;2.72;2.25;;;;;;;22.82;100.00;99667.44;6240314;22;20020;-76
2022/06/26 07:13:28;;;;;;;3.90;3.33;;;;;;;22.92;100.00;99661.53;6240378;22;20012;-82
2022/06/26 07:15:54;;;;;;;4.43;4.05;;;;;;;23.01;100.00;99674.50;6240597;23;20349;-83
2022/06/26 07:18:22;;;;;;;5.25;3.13;;;;;;;23.06;100.00;99666.59;6240168;23;20008;-83
2022/06/26 07:20:48;;;;;;;5.63;3.40;;;;;;;23.11;100.00;99658.69;6239436;23;20345;-82
2022/06/26 07:23:14;;;;;;;6.63;5.10;;;;;;;23.00;100.00;99670.16;6240161;22;20008;-78
2022/06/26 07:25:46;;;;;;;5.28;4.40;;;;;;;23.08;100.00;99666.38;6239996;22;20048;-78
2022/06/26 07:28:13;;;;;;;5.78;4.57;;;;;;;23.15;100.00;99665.25;6238393;23;20020;-79
2022/06/26 07:30:39;;;;;;;9.80;5.72;;;;;;;23.16;100.00;99656.16;6239127;23;20015;-81
2022/06/26 07:35:54;;;;;;;6.68;5.43;;;;;;;23.27;100.00;99668.88;6238580;23;20012;-78
2022/06/26 07:38:21;;;;;;;6.00;5.45;;;;;;;23.39;100.00;99670.84;6238915;23;20000;-76
2022/06/26 07:40:47;;;;;;;11.88;4.35;;;;;;;23.48;100.00;99664.16;6240750;22;20012;-82
2022/06/26 07:43:12;;;;;;;3.83;3.40;;;;;;;23.54;100.00;99668.66;6244199;22;20008;-79
2022/06/26 07:45:38;;;;;;;5.30;4.85;;;;;;;23.62;100.00;99676.44;6245411;22;20569;-79
2022/06/26 07:48:07;;;;;;;4.93;4.47;;;;;;;23.66;100.00;99672.25;6273117;22;20047;-80
2022/06/26 07:50:36;;;;;;;8.25;6.38;;;;;;;23.57;100.00;99676.25;6246457;22;20321;-80
2022/06/26 07:53:02;;;;;;;6.53;5.35;;;;;;;23.52;100.00;99665.34;6220567;22;20011;-80
2022/06/26 07:55:28;;;;;;;6.03;5.40;;;;;;;23.62;100.00;99665.66;6271807;22;20345;-77
2022/06/26 07:57:54;;;;;;;6.88;5.47;;;;;;;23.61;100.00;99662.16;6272554;22;20004;-85
2022/06/26 08:00:20;;;;;;;6.50;4.57;;;;;;;23.67;100.00;99663.13;6245365;22;20008;-79
2022/06/26 08:02:46;;;;;;;5.32;4.82;;;;;;;23.66;100.00;99650.69;6245912;22;20012;-76
2022/06/26 08:05:12;;;;;;;7.75;5.30;;;;;;;23.73;100.00;99656.84;6270736;22;20012;-80
2022/06/26 08:07:38;;;;;;;6.13;5.53;;;;;;;23.82;100.00;99655.47;6244184;22;20015;-80
2022/06/26 08:10:04;;;;;;;8.50;5.03;;;;;;;23.91;100.00;99651.44;6270984;22;20373;-77
2022/06/26 08:12:30;;;;;;;5.32;4.38;;;;;;;23.95;100.00;99649.91;6270632;22;20077;-86
2022/06/26 08:14:56;;;;;;;5.30;3.78;;;;;;;24.01;100.00;99653.56;6272209;22;20007;-86
2022/06/26 08:17:22;;;;;;;5.10;3.38;;;;;;;24.04;100.00;99653.94;6272007;22;20021;-84
2022/06/26 08:19:48;;;;;;;4.20;3.50;;;;;;;24.11;100.00;99647.63;6244291;22;20008;-78
2022/06/26 08:22:15;;;;;;;7.18;4.57;;;;;;;24.17;100.00;99652.09;6272714;22;20011;-80
2022/06/26 08:24:41;;;;;;;5.15;4.07;;;;;;;24.24;100.00;99652.88;6273189;22;20332;-77
2022/06/26 08:27:08;;;;;;;5.38;3.58;;;;;;;24.31;100.00;99648.22;6272526;22;20310;-77
2022/06/26 08:29:35;;;;;;;3.80;3.50;;;;;;;24.39;100.00;99651.41;6273219;22;20352;-76
2022/06/26 08:32:01;;;;;;;7.20;3.80;;;;;;;24.44;100.00;99653.44;6273601;22;20022;-76
2022/06/26 08:34:27;;;;;;;4.15;3.70;;;;;;;24.43;100.00;99646.38;6273048;22;20039;-78
2022/06/26 08:36:53;;;;;;;5.85;3.72;;;;;;;24.55;100.00;99647.25;6273370;22;20008;-75
2022/06/26 08:39:20;;;;;;;5.53;2.90;;;;;;;24.66;100.00;99646.44;6272857;22;20039;-78
2022/06/26 08:41:47;;;;;;;3.35;2.97;;;;;;;24.76;100.00;99645.84;6273266;22;20027;-77
2022/06/26 08:44:13;;;;;;;5.40;3.30;;;;;;;24.82;100.00;99645.75;6272749;22;20011;-80
2022/06/26 08:46:41;;;;;;;4.72;2.80;;;;;;;24.89;99.20;99648.38;6273056;22;20026;-78
2022/06/26 08:49:13;;;;;;;3.85;2.53;;;;;;;24.93;99.39;99651.41;6246855;22;20065;-79
2022/06/26 08:51:42;;;;;;;4.20;2.70;;;;;;;24.92;96.81;99647.09;6273105;22;20733;-80
2022/06/26 08:54:09;;;;;;;2.97;2.15;;;;;;;24.96;96.34;99648.28;6273170;22;20008;-79
2022/06/26 08:56:38;;;;;;;4.20;2.53;;;;;;;25.01;96.77;99643.81;6246245;22;20045;-80
2022/06/26 08:59:04;;;;;;;2.83;2.25;;;;;;;25.07;97.03;99636.66;6272618;22;20023;-79
2022/06/26 09:01:30;;;;;;;5.13;3.17;;;;;;;25.09;95.32;99643.47;6273036;22;20328;-78
2022/06/26 09:03:56;;;;;;;6.18;2.50;;;;;;;25.13;95.69;99641.09;6273653;22;20004;-77
2022/06/26 09:06:21;;;;;;;4.30;2.78;;;;;;;25.14;95.33;99643.59;6272528;22;20012;-81
2022/06/26 09:08:50;;;;;;;3.92;3.47;;;;;;;25.18;95.71;99643.94;6273493;22;20130;-79
2022/06/26 09:11:17;;;;;;;4.53;3.05;;;;;;;25.22;95.46;99651.31;6272753;22;20434;-81
2022/06/26 09:13:44;;;;;;;3.85;2.78;;;;;;;25.30;95.97;99652.84;6272830;22;20142;-83
2022/06/26 09:16:11;;;;;;;3.63;2.72;;;;;;;25.35;95.01;99644.84;6272789;22;20015;-76
2022/06/26 09:18:38;;;;;;;3.78;2.72;;;;;;;25.42;94.72;99645.56;6273060;22;20011;-76
2022/06/26 09:21:06;;;;;;;4.45;3.03;;;;;;;25.50;94.41;99647.91;6272638;22;20336;-77
2022/06/26 09:23:36;;;;;;;4.88;2.58;;;;;;;25.54;92.91;99649.06;6273117;22;20070;-74
2022/06/26 09:26:02;;;;;;;;;;;;;;;25.50;92.56;99644.38;6273443;22;20015;-76
2022/06/26 09:28:28;;;;;;;4.68;2.63;;;;;;;25.55;90.90;99645.31;6272337;22;19911;-79
2022/06/26 09:30:59;;;;;;;3.38;2.45;;;;;;;25.61;91.43;99644.38;6272550;22;20011;-77
2022/06/26 09:33:30;;;;;;;2.47;2.28;;;;;;;25.68;91.24;99645.06;6272285;22;20079;-77
2022/06/26 09:36:00;;;;;;;3.50;2.53;;;;;;;25.71;87.22;99637.53;6273819;22;20019;-77
2022/06/26 09:38:28;;;;;;;2.58;2.00;;;;;;;25.78;86.92;99630.13;6272784;22;20382;-79
2022/06/26 09:40:57;;;;;;;3.80;1.85;;;;;;;25.85;87.12;99633.50;6273584;22;20445;-78
2022/06/26 09:43:25;;;;;;;3.88;1.60;;;;;;;25.91;82.25;99629.84;6246234;22;20436;-79
2022/06/26 09:45:55;;;;;;;4.80;1.52;;;;;;;25.93;81.85;99633.94;6273934;22;20050;-78
2022/06/26 09:48:23;;;;;;;4.97;2.40;;;;;;;25.99;83.02;99624.03;6270426;22;20848;-78
2022/06/26 09:50:49;;;;;;;2.55;1.77;;;;;;;25.98;84.31;99625.09;6272579;22;20050;-77
2022/06/26 09:53:17;;;;;;;4.25;1.75;;;;;;;25.98;82.15;99628.63;6271946;22;20504;-75
2022/06/26 09:55:43;;;;;;;3.55;3.00;;;;;;;26.01;83.57;99621.94;6271526;22;20429;-78
2022/06/26 09:58:09;;;;;;;2.42;1.55;;;;;;;26.06;82.82;99630.13;6272385;22;20022;-77
2022/06/26 10:00:35;;;;;;;2.38;1.48;;;;;;;26.14;80.06;99627.06;6272091;22;20444;-77
2022/06/26 10:08:40;;;;;;;2.13;1.50;;;;;;;26.32;77.09;99613.34;6272335;22;20908;-76
2022/06/26 10:11:06;;;;;;;2.50;1.65;;;;;;;26.42;77.49;99610.81;6244610;22;20008;-77
2022/06/26 10:13:36;;;;;;;1.73;1.17;;;;;;;26.48;75.42;99606.31;6272996;22;20061;-78
2022/06/26 10:16:20;;;;;;;;;;;;;;;26.49;75.30;99607.97;6273293;22;20492;-78
2022/06/26 10:19:13;;;;;;;4.40;1.70;;;;;;;26.52;75.86;99595.81;6272318;22;20304;-78
2022/06/26 10:21:39;;;;;;;2.72;1.67;;;;;;;26.49;76.28;99595.25;6272973;22;20007;-78
2022/06/26 10:24:06;;;;;;;1.90;1.70;;;;;;;26.49;77.22;99597.97;6273063;22;20443;-78
2022/06/26 10:26:32;;;;;;;2.38;1.60;;;;;;;26.49;77.84;99587.13;6272387;22;20031;-78
2022/06/26 10:29:01;;;;;;;1.90;1.23;;;;;;;26.56;75.75;99586.16;6245902;22;20421;-78
2022/06/26 10:31:47;;;;;;;6.47;1.58;;;;;;;26.65;73.77;99596.31;6245442;22;20007;-78
2022/06/26 10:34:20;;;;;;;2.33;1.63;;;;;;;26.71;72.84;99594.50;6272544;22;20008;-78
2022/06/26 10:37:04;;;;;;;2.00;1.27;;;;;;;26.79;71.65;99596.81;6245826;22;20018;-78
2022/06/26 10:39:42;;;;;;;1.63;1.40;;;;;;;26.84;70.35;99589.59;6272246;22;20388;-78
2022/06/26 10:45:11;;;;;;;2.58;1.70;;;;;;;27.05;71.53;99590.72;6271956;22;20015;-78
2022/06/26 10:47:50;;;;;;;1.83;1.40;;;;;;;27.11;72.69;99584.31;6245232;22;20344;-77
2022/06/26 10:50:34;;;;;;;2.42;1.60;;;;;;;27.19;70.24;99578.47;6272347;22;20375;-78
2022/06/26 10:53:15;;;;;;;2.00;1.35;;;;;;;27.24;70.65;99578.53;6272672;22;20378;-78
2022/06/26 10:55:43;;;;;;;2.58;1.50;;;;;;;27.24;71.50;99573.13;6245409;22;20441;-78
2022/06/26 10:58:18;;;;;;;1.58;1.40;;;;;;;27.28;72.73;99574.25;6245738;22;20690;-78
2022/06/26 11:00:44;;;;;;;2.17;1.83;;;;;;;27.34;73.33;99583.25;6272973;22;20366;-77
2022/06/26 11:03:17;;;;;;;3.45;1.80;;;;;;;27.39;73.57;99571.69;6272256;22;20014;-80
2022/06/26 11:06:00;;;;;;;1.83;1.50;;;;;;;27.36;74.32;99574.88;6272470;22;20012;-77
2022/06/26 11:08:33;;;;;;;4.22;1.60;;;;;;;27.41;74.02;99566.81;6244300;22;20786;-78
2022/06/26 11:11:14;;;;;;;3.85;1.70;;;;;;;27.42;75.20;99555.75;6245451;22;20341;-79
2022/06/26 11:14:00;;;;;;;1.45;1.30;;;;;;;27.46;74.47;99561.47;6272434;22;20054;-79
2022/06/26 11:16:35;;;;;;;3.22;2.22;;;;;;;27.47;73.95;99557.69;6271636;22;20392;-81
2022/06/26 11:19:06;;;;;;;3.30;1.45;;;;;;;27.55;72.21;99562.69;6245375;22;20012;-78
2022/06/26 11:21:32;;;;;;;2.45;1.60;;;;;;;27.65;69.98;99551.97;6219693;22;20352;-79
2022/06/26 11:24:00;;;;;;;2.58;1.50;;;;;;;27.75;68.75;99557.50;6272353;22;20004;-79
2022/06/26 11:26:26;;;;;;;3.17;1.60;;;;;;;27.72;67.66;99552.59;6272090;22;20007;-79
2022/06/26 11:29:00;;;;;;;3.20;1.50;;;;;;;27.74;70.49;99553.16;6272661;22;20011;-79
2022/06/26 11:31:31;;;;;;;4.13;1.58;;;;;;;27.82;70.76;99549.97;6272060;22;20008;-79
2022/06/26 11:34:14;;;;;;;6.75;1.63;;;;;;;27.85;71.11;99546.78;6272750;22;20610;-81
2022/06/26 11:36:57;;;;;;;3.67;1.73;;;;;;;27.90;66.35;99549.53;6272236;22;19999;-79
2022/06/26 11:39:24;;;;;;;3.33;1.50;;;;;;;27.84;67.95;99545.13;6271978;22;20436;-80
2022/06/26 11:41:50;;;;;;;4.07;1.70;;;;;;;27.85;68.19;99546.78;6245560;22;20385;-80
2022/06/26 11:44:16;;;;;;;7.25;1.65;;;;;;;27.91;68.72;99545.75;6245184;22;20286;-79
2022/06/26 11:46:42;;;;;;;2.75;1.52;;;;;;;28.03;68.38;99546.44;6245160;22;20014;-80
2022/06/26 11:49:10;;;;;;;4.90;1.80;;;;;;;28.16;67.04;99542.47;6272198;22;20329;-79
2022/06/26 11:51:36;;;;;;;8.10;2.00;;;;;;;28.13;64.89;99536.72;6271870;22;20018;-79